WetterOnline ( https://www.wetteronline.de )

Wetter aktuell Nebelhorn

Aktuelles Wetter: Oberstdorf (812m)

6-stündlich | Neueste Meldungen
Ortszeit Temperatur Wetter
Di, 28.05. 14:00 13.1° C bewölkt
Di, 28.05. 8:00 9.8° C leichter Regen
Di, 28.05. 2:00 10.8° C Sprühregen
Mo, 27.05. 20:00 13.9° C Sprühregen
Mo, 27.05. 14:00 19.2° C bedeckt
Mo, 27.05. 8:00 13.2° C bedeckt
Mo, 27.05. 2:00 11.2° C bedeckt
So, 26.05. 20:00 18.7° C wolkig
Ortszeit Temperatur Wetter
Di, 28.05. 16:30 13.1° C bedeckt
Di, 28.05. 16:20 13.1° C bedeckt
Di, 28.05. 16:10 12.9° C bedeckt
Di, 28.05. 16:00 12.8° C bedeckt
Di, 28.05. 15:50 12.8° C bedeckt
Di, 28.05. 15:40 13.0° C bedeckt
Di, 28.05. 15:30 13.3° C bewölkt
Di, 28.05. 15:00 13.5° C bedeckt
Di, 28.05. 14:30 13.5° C bedeckt
Di, 28.05. 14:00 13.1° C bewölkt
Di, 28.05. 13:30 12.6° C bedeckt
Ortszeit Relative Feuchte Sichtweite
Di, 28.05. 14:00 73% >70 km
Di, 28.05. 8:00 88% 26 km
Di, 28.05. 2:00 94% 40 km
Mo, 27.05. 20:00 92% 45 km
Mo, 27.05. 14:00 58% 55 km
Mo, 27.05. 8:00 76% >70 km
Mo, 27.05. 2:00 88% >70 km
So, 26.05. 20:00 57% >70 km
Ortszeit Relative Feuchte Sichtweite
Di, 28.05. 16:30 69% >70 km
Di, 28.05. 16:20 69% -
Di, 28.05. 16:10 74% -
Di, 28.05. 16:00 75% 65 km
Di, 28.05. 15:50 75% -
Di, 28.05. 15:40 70% -
Di, 28.05. 15:30 67% >70 km
Di, 28.05. 15:00 66% 65 km
Di, 28.05. 14:30 63% >70 km
Di, 28.05. 14:00 73% >70 km
Di, 28.05. 13:30 76% >70 km
Ortszeit Niederschlagsmenge Niederschlagsart
Di, 28.05. 14:00 0.7 l/m2 in 6 Std. Regen
Di, 28.05. 8:00 16 l/m2 in 12 Std. Regen
Di, 28.05. 2:00 10 l/m2 in 6 Std. Regen
Mo, 27.05. 20:00 2 l/m2 in 12 Std. Regen
Mo, 27.05. 14:00 0.1 l/m2 in 6 Std. Regen
Mo, 27.05. 8:00 0.0 l/m2 in 12 Std. -
Mo, 27.05. 2:00 0.0 l/m2 in 6 Std. -
So, 26.05. 20:00 0.0 l/m2 in 12 Std. -
Ortszeit Niederschlagsmenge Niederschlagsart
Di, 28.05. 16:30 0.0 l/m2 in 30 Min -
Di, 28.05. 16:20 keine Meldung -
Di, 28.05. 16:10 keine Meldung -
Di, 28.05. 16:00 0.0 l/m2 in 1 Std. -
Di, 28.05. 15:50 keine Meldung -
Di, 28.05. 15:40 keine Meldung -
Di, 28.05. 15:30 0.0 l/m2 in 30 Min -
Di, 28.05. 15:00 0.0 l/m2 in 1 Std. -
Di, 28.05. 14:30 0.0 l/m2 in 30 Min -
Di, 28.05. 14:00 0.0 l/m2 in 1 Std. Regen
Di, 28.05. 13:30 0.0 l/m2 in 30 Min -
Ortszeit Stärke Spitze Richtung
km/h Bft. km/h Grad Sektor
Di, 28.05. 14:00 7 2 14 140° SO
Di, 28.05. 8:00 7 2 14 50° NO
Di, 28.05. 2:00 7 2 24 150° SO
Mo, 27.05. 20:00 4 1 32 260° W
Mo, 27.05. 14:00 9 2 24 350° N
Mo, 27.05. 8:00 4 1 11 250° W
Mo, 27.05. 2:00 6 1 17 150° SO
So, 26.05. 20:00 7 2 22 340° N
Ortszeit Stärke Spitze Richtung
km/h Bft. km/h Grad Sektor
Di, 28.05. 16:30 7 2 11 150° SO
Di, 28.05. 16:20 7 2 - 150° SO
Di, 28.05. 16:10 7 2 - 170° S
Di, 28.05. 16:00 7 2 7 170° S
Di, 28.05. 15:50 7 2 - 170° S
Di, 28.05. 15:40 7 2 - 180° S
Di, 28.05. 15:30 4 1 7 280° W
Di, 28.05. 15:00 4 1 11 140° SO
Di, 28.05. 14:30 4 1 11 80° O
Di, 28.05. 14:00 7 2 14 140° SO
Di, 28.05. 13:30 11 2 11 160° S
Ortszeit Untergrenze Bedeckung Gattung
total tief tief mittel hoch
Di, 28.05. 14:00 1350 m 7/8 7/8 - - -
Di, 28.05. 8:00 1140 m 7/8 7/8 - - -
Di, 28.05. 2:00 930 m 8/8 8/8 - - -
Mo, 27.05. 20:00 630 m 8/8 7/8 - - -
Mo, 27.05. 14:00 3600 m 8/8 8/8 - - -
Mo, 27.05. 8:00 3900 m 8/8 8/8 - - -
Mo, 27.05. 2:00 2100 m 8/8 8/8 - - -
So, 26.05. 20:00 6300 m 8/8 8/8 - - -
Ortszeit Bedeckungsgrad in Achtel und Wolkenuntergrenze
Di, 28.05. 16:30 8(1440m)
Di, 28.05. 16:20 8(1440m)
Di, 28.05. 16:10 8
Di, 28.05. 16:00 8(1320m)
Di, 28.05. 15:50 8(1320m)
Di, 28.05. 15:40 8
Di, 28.05. 15:30 2(870m) 7(1320m)
Di, 28.05. 15:00 6(1440m) 8(1500m)
Di, 28.05. 14:30 8(1500m)
Di, 28.05. 14:00 7(1350m)
Di, 28.05. 13:30 7(1440m) 8(1500m)
Ortszeit Stationsdruck (hPa) Tendenz (hPa in 3 Std.)
Di, 28.05. 14:00 928 - 0,4
Di, 28.05. 8:00 928 + 1,0
Di, 28.05. 2:00 927 + 0,2
Mo, 27.05. 20:00 925 + 1,0
Mo, 27.05. 14:00 925 - 2,0
Mo, 27.05. 8:00 927 + 0,4
Mo, 27.05. 2:00 927 - 0,1
So, 26.05. 20:00 926 + 0,6
Ortszeit Stationsdruck (hPa) Tendenz (hPa in 3 Std.)
Di, 28.05. 16:30 928 - 0,5
Di, 28.05. 16:20 928 keine Meldung
Di, 28.05. 16:10 928 keine Meldung
Di, 28.05. 16:00 928 - 0,5
Di, 28.05. 15:50 928 keine Meldung
Di, 28.05. 15:40 928 keine Meldung
Di, 28.05. 15:30 928 - 0,6
Di, 28.05. 15:00 928 - 0,8
Di, 28.05. 14:30 928 - 0,7
Di, 28.05. 14:00 928 - 0,4
Di, 28.05. 13:30 928 - 0,3
Ortszeit Schneehöhe (cm)
Di, 28.05. 14:00 0
Di, 28.05. 8:00 0
Di, 28.05. 2:00 0
Mo, 27.05. 20:00 0
Mo, 27.05. 14:00 0
Mo, 27.05. 8:00 0
Mo, 27.05. 2:00 0
So, 26.05. 20:00 0
Ortszeit Schneehöhe (cm)
Di, 28.05. 16:30 0
Di, 28.05. 16:20 0
Di, 28.05. 16:10 -
Di, 28.05. 16:00 0
Di, 28.05. 15:50 0
Di, 28.05. 15:40 -
Di, 28.05. 15:30 0
Di, 28.05. 15:00 0
Di, 28.05. 14:30 0
Di, 28.05. 14:00 0
Di, 28.05. 13:30 0
Link zu dieser Seite / Seite empfehlen

Das Wetter in ...